Allerton, New York
Current Conditions -  °F | °C
As of 6:51 PM on Thursday 27 Nov 2014 (Local Time) from KLGA Reporting Station
Overcast Overcast  
Wind Chill: 29°   Ceiling: 4000
Heat Index: 37°   Visibility: 10mi
Dew Point: 27°   Wind: 12mph
Humidity: 67%   Direction: 320°NW
Pressure: 30.03"   Gusts: NA
Location:  40.8778°N, 73.8721°W
Report Text: KLGA 272351Z 32010KT 10SM FEW026 BKN040 OVC140 03/M03 A3003 RMK AO2 SLP169 T00281028 10033 20028 51014
Loading
Personal Weather Stations






























Interactive Weather Map New forecast layout! Learn more

10-Day Weather Forecast

Advertisements
Track Severe Weather on mobile